createdAt,value
2022-08-03T00:08:23.256Z,26.6
2022-08-03T00:24:16.366Z,26.2
2022-08-03T00:39:35.606Z,25.9
2022-08-03T00:55:06.182Z,25.5
2022-08-03T01:18:22.097Z,25
2022-08-03T01:41:49.337Z,24.4
2022-08-03T01:49:34.655Z,24.3
2022-08-03T02:27:58.708Z,23.6
2022-08-03T02:35:44.051Z,23.5
2022-08-03T03:06:45.524Z,23
2022-08-03T03:30:24.251Z,22.6
2022-08-03T03:45:55.012Z,22.4
2022-08-03T04:01:25.761Z,22.2
2022-08-03T04:24:19.345Z,21.9
2022-08-03T04:47:35.536Z,21.6
2022-08-03T05:11:14.337Z,21.4
2022-08-03T05:34:19.241Z,21.3
2022-08-03T05:41:53.359Z,21.3
2022-08-03T06:20:40.254Z,21.3
2022-08-03T06:59:26.610Z,21.7
2022-08-03T07:07:23.167Z,21.8
2022-08-03T07:30:38.915Z,22.1
2022-08-03T07:46:20.704Z,22.2
2022-08-03T08:24:44.213Z,22.7
2022-08-03T08:32:40.742Z,22.8
2022-08-03T08:48:22.459Z,23
2022-08-03T09:19:00.595Z,23.4
2022-08-03T09:42:38.723Z,23.7
2022-08-03T09:57:57.718Z,23.9
2022-08-03T10:13:27.991Z,24.2
2022-08-03T10:36:54.648Z,24.5
2022-08-03T10:52:13.556Z,24.7
2022-08-03T11:15:40.167Z,25.1
2022-08-03T11:38:44.095Z,25.4
2022-08-03T12:09:33.021Z,25.9
2022-08-03T12:25:03.107Z,26.2
2022-08-03T12:40:44.442Z,26.5
2022-08-03T12:56:25.727Z,26.8
2022-08-03T13:27:14.050Z,27.7
2022-08-03T13:42:32.416Z,28.3
2022-08-03T14:05:45.788Z,30.3
2022-08-03T14:21:13.582Z,33.2
2022-08-03T14:52:20.312Z,38.1
2022-08-03T15:07:59.295Z,40.2
2022-08-03T15:23:15.681Z,41.9
2022-08-03T15:53:59.945Z,44.5
2022-08-03T16:01:43.872Z,45
2022-08-03T16:33:02.476Z,46.4
2022-08-03T16:55:51.799Z,47.5
2022-08-03T17:34:43.551Z,48.2
2022-08-03T17:57:45.029Z,47.9
2022-08-03T18:05:53.932Z,47.6
2022-08-03T18:36:38.803Z,45.9
2022-08-03T18:52:08.417Z,44.5
2022-08-03T19:07:38.139Z,43
2022-08-03T19:46:23.054Z,39.4
2022-08-03T20:01:41.840Z,38.1
2022-08-03T20:17:47.380Z,36.9
2022-08-03T20:56:08.582Z,34.4
2022-08-03T21:19:23.865Z,33
2022-08-03T21:50:24.318Z,31.6
2022-08-03T22:21:24.848Z,30.3
2022-08-03T22:44:40.318Z,29.5
2022-08-03T23:07:44.551Z,28.7
2022-08-03T23:31:11.472Z,28
2022-08-03T23:46:30.519Z,27.6
